Time;durP1;ratioP1;P1;durP2;ratioP2;P2;SDS_P1;SDS_P2;PMS_P1;PMS_P2;Temp;Humidity;BMP_temperature;BMP_pressure;BME280_temperature;BME280_humidity;BME280_pressure;Samples;Min_cycle;Max_cycle;Signal;HPM_P1;HPM_P2
2020/12/16 00:02:12;;;;;;;39.38;28.90;;;;;;;;;;6255643;28;20045;-71
2020/12/16 00:05:14;;;;;;;68.22;44.42;;;;;;;;;;6251455;28;20136;-70
2020/12/16 00:08:15;;;;;;;60.33;41.75;;;;;;;;;;6256440;28;20045;-70
2020/12/16 00:11:16;;;;;;;46.13;29.80;;;;;;;;;;6259367;28;20156;-70
2020/12/16 00:14:17;;;;;;;45.20;31.27;;;;;;;;;;6260217;28;20041;-71
2020/12/16 00:17:18;;;;;;;41.22;29.83;;;;;;;;;;6263125;28;20124;-74
2020/12/16 00:20:20;;;;;;;39.83;27.98;;;;;;;;;;6252118;28;20048;-69
2020/12/16 00:23:22;;;;;;;40.88;28.50;;;;;;;;;;6264758;28;20128;-72
2020/12/16 00:26:23;;;;;;;37.60;27.17;;;;;;;;;;6261659;28;20056;-70
2020/12/16 00:29:24;;;;;;;40.92;28.48;;;;;;;;;;6257880;28;20045;-69
2020/12/16 00:32:25;;;;;;;38.65;29.23;;;;;;;;;;6261920;28;20144;-69
2020/12/16 00:35:29;;;;;;;41.25;28.88;;;;;;;;;;6257571;28;20416;-70
2020/12/16 00:38:30;;;;;;;39.50;28.23;;;;;;;;;;6256587;28;20048;-69
2020/12/16 00:41:32;;;;;;;35.90;27.30;;;;;;;;;;6264770;28;20036;-72
2020/12/16 00:44:33;;;;;;;40.03;27.30;;;;;;;;;;6258924;28;20041;-71
2020/12/16 00:47:35;;;;;;;36.95;27.15;;;;;;;;;;6265675;28;20037;-70
2020/12/16 00:50:36;;;;;;;36.72;28.23;;;;;;;;;;6255248;28;20049;-69
2020/12/16 00:53:37;;;;;;;40.72;28.77;;;;;;;;;;6260584;28;20489;-70
2020/12/16 00:56:42;;;;;;;39.78;27.95;;;;;;;;;;6259139;28;20124;-71
2020/12/16 00:59:43;;;;;;;37.55;27.25;;;;;;;;;;6247456;28;20046;-70
2020/12/16 01:02:45;;;;;;;41.58;28.25;;;;;;;;;;6240528;28;20054;-70
2020/12/16 01:05:47;;;;;;;36.50;27.00;;;;;;;;;;6249501;28;20507;-72
2020/12/16 01:08:48;;;;;;;40.33;29.45;;;;;;;;;;6255234;28;20132;-71
2020/12/16 01:11:49;;;;;;;41.28;29.20;;;;;;;;;;6262816;28;20563;-71
2020/12/16 01:14:50;;;;;;;43.97;29.98;;;;;;;;;;6283634;28;20148;-70
2020/12/16 01:17:51;;;;;;;38.60;28.98;;;;;;;;;;6283185;28;20098;-70
2020/12/16 01:20:53;;;;;;;41.58;30.10;;;;;;;;;;6285166;28;20057;-70
2020/12/16 01:23:54;;;;;;;43.80;32.22;;;;;;;;;;6287386;28;20131;-68
2020/12/16 01:26:55;;;;;;;42.53;30.02;;;;;;;;;;6287370;28;20045;-71
2020/12/16 01:29:56;;;;;;;44.03;31.45;;;;;;;;;;6287553;28;20041;-68
2020/12/16 01:32:57;;;;;;;42.13;30.67;;;;;;;;;;6265539;28;20041;-68
2020/12/16 01:35:59;;;;;;;45.28;32.88;;;;;;;;;;6268922;28;20128;-68
2020/12/16 01:39:00;;;;;;;48.47;32.58;;;;;;;;;;6264691;28;20106;-69
2020/12/16 01:42:01;;;;;;;46.85;34.45;;;;;;;;;;6263104;28;20385;-69
2020/12/16 01:45:04;;;;;;;47.70;32.47;;;;;;;;;;6265558;28;20860;-69
2020/12/16 01:48:05;;;;;;;47.05;31.73;;;;;;;;;;6267259;28;20051;-70
2020/12/16 01:51:08;;;;;;;44.63;30.88;;;;;;;;;;6267410;28;20054;-68
2020/12/16 01:54:10;;;;;;;44.10;31.55;;;;;;;;;;6278062;28;20057;-69
2020/12/16 01:57:12;;;;;;;46.03;31.73;;;;;;;;;;6291497;28;20048;-69
2020/12/16 02:00:14;;;;;;;46.33;31.45;;;;;;;;;;6282491;28;20041;-68
2020/12/16 02:03:18;;;;;;;44.03;30.75;;;;;;;;;;6284556;28;20045;-68
2020/12/16 02:06:21;;;;;;;43.35;30.40;;;;;;;;;;6288710;28;20564;-68
2020/12/16 02:09:22;;;;;;;49.13;32.83;;;;;;;;;;6285234;28;20186;-72
2020/12/16 02:12:26;;;;;;;44.60;31.70;;;;;;;;;;6282313;28;20063;-70
2020/12/16 02:15:27;;;;;;;44.03;30.37;;;;;;;;;;6283912;28;20047;-70
2020/12/16 02:18:28;;;;;;;44.03;30.83;;;;;;;;;;6282253;28;21025;-74
2020/12/16 02:21:30;;;;;;;43.58;31.60;;;;;;;;;;6280415;28;20530;-69
2020/12/16 02:24:32;;;;;;;41.22;31.02;;;;;;;;;;6282635;28;20124;-71
2020/12/16 02:27:34;;;;;;;43.55;31.83;;;;;;;;;;6287195;28;20052;-70
2020/12/16 02:30:35;;;;;;;42.58;31.20;;;;;;;;;;6278671;28;20167;-71
2020/12/16 02:33:36;;;;;;;43.88;31.75;;;;;;;;;;6260521;28;20152;-70
2020/12/16 02:36:37;;;;;;;44.95;31.40;;;;;;;;;;6272334;28;20144;-69
2020/12/16 02:39:39;;;;;;;45.03;31.77;;;;;;;;;;6261379;28;20045;-71
2020/12/16 02:42:40;;;;;;;43.50;33.17;;;;;;;;;;6257670;28;20128;-70
2020/12/16 02:45:41;;;;;;;39.45;30.08;;;;;;;;;;6258115;28;20071;-70
2020/12/16 02:48:43;;;;;;;45.95;30.77;;;;;;;;;;6260854;28;20038;-69
2020/12/16 02:51:44;;;;;;;43.50;31.65;;;;;;;;;;6259826;28;20515;-71
2020/12/16 02:54:45;;;;;;;41.75;31.92;;;;;;;;;;6256025;28;20131;-70
2020/12/16 02:57:47;;;;;;;41.22;31.42;;;;;;;;;;6263163;28;20127;-72
2020/12/16 03:00:48;;;;;;;44.78;31.85;;;;;;;;;;6260896;28;20045;-71
2020/12/16 03:03:49;;;;;;;40.75;32.13;;;;;;;;;;6261901;28;20049;-71
2020/12/16 03:06:53;;;;;;;46.90;32.92;;;;;;;;;;6256965;28;20079;-69
2020/12/16 03:09:54;;;;;;;48.30;32.45;;;;;;;;;;6262663;28;20179;-69
2020/12/16 03:12:56;;;;;;;44.97;32.42;;;;;;;;;;6264130;28;20037;-69
2020/12/16 03:15:57;;;;;;;44.63;32.55;;;;;;;;;;6252446;28;20072;-70
2020/12/16 03:18:58;;;;;;;46.05;32.75;;;;;;;;;;6250977;28;20044;-69
2020/12/16 03:21:59;;;;;;;43.88;31.40;;;;;;;;;;6251348;28;20133;-74
2020/12/16 03:25:00;;;;;;;43.25;32.25;;;;;;;;;;6255299;28;20049;-70
2020/12/16 03:28:02;;;;;;;41.60;30.65;;;;;;;;;;6262756;28;20056;-70
2020/12/16 03:31:03;;;;;;;39.47;30.17;;;;;;;;;;6255866;28;20135;-73
2020/12/16 03:34:04;;;;;;;40.42;29.95;;;;;;;;;;6260112;28;20186;-70
2020/12/16 03:37:05;;;;;;;40.60;30.00;;;;;;;;;;6264722;28;20140;-70
2020/12/16 03:40:06;;;;;;;37.85;28.92;;;;;;;;;;6259264;28;20485;-69
2020/12/16 03:43:08;;;;;;;44.25;30.10;;;;;;;;;;6257275;28;20128;-70
2020/12/16 03:46:09;;;;;;;43.13;31.17;;;;;;;;;;6257817;28;20132;-70
2020/12/16 03:49:10;;;;;;;42.13;31.45;;;;;;;;;;6259891;28;20435;-69
2020/12/16 03:52:11;;;;;;;43.78;32.22;;;;;;;;;;6257638;28;20041;-68
2020/12/16 03:55:12;;;;;;;45.10;33.45;;;;;;;;;;6257357;28;20587;-70
2020/12/16 03:58:14;;;;;;;46.92;35.00;;;;;;;;;;6260394;28;20044;-70
2020/12/16 04:01:20;;;;;;;47.25;35.30;;;;;;;;;;6259619;28;20124;-71
2020/12/16 04:04:22;;;;;;;50.65;36.58;;;;;;;;;;6254247;28;20132;-71
2020/12/16 04:07:23;;;;;;;48.53;36.38;;;;;;;;;;6276477;28;20044;-70
2020/12/16 04:10:24;;;;;;;51.17;37.75;;;;;;;;;;6284837;28;20055;-71
2020/12/16 04:13:26;;;;;;;56.60;41.03;;;;;;;;;;6288701;28;20137;-70
2020/12/16 04:16:27;;;;;;;57.33;44.90;;;;;;;;;;6284680;28;20051;-70
2020/12/16 04:19:28;;;;;;;60.58;41.67;;;;;;;;;;6273435;28;20037;-70
2020/12/16 04:22:30;;;;;;;56.42;40.42;;;;;;;;;;6260570;28;20041;-73
2020/12/16 04:25:31;;;;;;;54.83;40.42;;;;;;;;;;6257010;28;20074;-71
2020/12/16 04:28:34;;;;;;;55.08;39.90;;;;;;;;;;6257170;28;20589;-70
2020/12/16 04:31:35;;;;;;;53.83;39.60;;;;;;;;;;6261983;28;20151;-73
2020/12/16 04:34:36;;;;;;;55.00;39.97;;;;;;;;;;6256687;28;20606;-70
2020/12/16 04:37:37;;;;;;;52.50;39.97;;;;;;;;;;6273245;28;20061;-70
2020/12/16 04:40:38;;;;;;;53.53;38.95;;;;;;;;;;6266962;28;20178;-70
2020/12/16 04:43:42;;;;;;;49.35;36.70;;;;;;;;;;6265727;28;20127;-70
2020/12/16 04:46:43;;;;;;;49.42;36.83;;;;;;;;;;6252290;28;20041;-69
2020/12/16 04:49:44;;;;;;;49.10;35.50;;;;;;;;;;6261779;28;20044;-69
2020/12/16 04:52:48;;;;;;;48.53;35.80;;;;;;;;;;6253858;28;20135;-68
2020/12/16 04:55:49;;;;;;;46.05;35.33;;;;;;;;;;6251077;28;20094;-70
2020/12/16 04:58:51;;;;;;;51.33;37.28;;;;;;;;;;6249986;28;20048;-69
2020/12/16 05:01:52;;;;;;;51.05;37.67;;;;;;;;;;6257194;28;20441;-68
2020/12/16 05:04:53;;;;;;;50.13;36.67;;;;;;;;;;6257357;28;20450;-68
2020/12/16 05:07:54;;;;;;;51.28;37.22;;;;;;;;;;6256903;28;20102;-68
2020/12/16 05:10:55;;;;;;;52.25;37.03;;;;;;;;;;6262203;28;20037;-69
2020/12/16 05:14:08;;;;;;;48.03;36.85;;;;;;;;;;6258591;28;20067;-69
2020/12/16 05:17:09;;;;;;;45.38;36.25;;;;;;;;;;6259271;28;20049;-70
2020/12/16 05:20:10;;;;;;;50.53;37.05;;;;;;;;;;6258221;28;20045;-69
2020/12/16 05:23:11;;;;;;;48.65;36.60;;;;;;;;;;6261931;28;20059;-69
2020/12/16 05:26:12;;;;;;;46.83;35.58;;;;;;;;;;6259017;28;20156;-71
2020/12/16 05:29:14;;;;;;;47.15;35.17;;;;;;;;;;6278274;28;20036;-69
2020/12/16 05:32:18;;;;;;;47.72;35.45;;;;;;;;;;6270760;28;20512;-72
2020/12/16 05:35:21;;;;;;;50.37;35.07;;;;;;;;;;6230265;28;20140;-70
2020/12/16 05:38:23;;;;;;;46.53;36.20;;;;;;;;;;6257222;28;20048;-69
2020/12/16 05:41:25;;;;;;;49.58;34.97;;;;;;;;;;6255973;28;20049;-70
2020/12/16 05:44:27;;;;;;;49.90;35.63;;;;;;;;;;6254391;28;20452;-68
2020/12/16 05:47:28;;;;;;;45.53;34.72;;;;;;;;;;6255741;28;20071;-69
2020/12/16 05:50:32;;;;;;;46.40;35.10;;;;;;;;;;6256728;28;20054;-69
2020/12/16 05:53:33;;;;;;;50.83;35.58;;;;;;;;;;6266119;28;20045;-71
2020/12/16 05:56:34;;;;;;;49.95;35.83;;;;;;;;;;6269722;28;20049;-69
2020/12/16 05:59:36;;;;;;;47.17;35.38;;;;;;;;;;6264270;28;20104;-70
2020/12/16 06:02:39;;;;;;;45.35;34.22;;;;;;;;;;6250346;28;20051;-69
2020/12/16 06:05:40;;;;;;;45.35;34.40;;;;;;;;;;6260609;28;20573;-73
2020/12/16 06:08:43;;;;;;;45.08;33.50;;;;;;;;;;6257766;28;20131;-69
2020/12/16 06:11:47;;;;;;;44.83;33.03;;;;;;;;;;6262296;28;20140;-69
2020/12/16 06:15:05;;;;;;;45.78;32.85;;;;;;;;;;6267429;28;20041;-70
2020/12/16 06:18:07;;;;;;;43.95;32.10;;;;;;;;;;6262771;28;20501;-70
2020/12/16 06:21:10;;;;;;;49.70;36.08;;;;;;;;;;6259450;28;20501;-70
2020/12/16 06:24:13;;;;;;;50.25;37.55;;;;;;;;;;6260178;28;20090;-69
2020/12/16 06:27:19;;;;;;;50.63;35.65;;;;;;;;;;6268571;28;20092;-69
2020/12/16 06:30:31;;;;;;;56.40;39.38;;;;;;;;;;6265575;28;20136;-69
2020/12/16 06:33:37;;;;;;;51.25;38.22;;;;;;;;;;6257202;28;20839;-71
2020/12/16 06:36:40;;;;;;;59.45;41.22;;;;;;;;;;6261163;28;20064;-69
2020/12/16 06:39:41;;;;;;;58.78;41.45;;;;;;;;;;6263015;28;20140;-70
2020/12/16 06:42:42;;;;;;;54.03;40.22;;;;;;;;;;6269808;28;20037;-71
2020/12/16 06:45:44;;;;;;;57.28;44.13;;;;;;;;;;6266440;28;20079;-70
2020/12/16 06:48:45;;;;;;;60.72;43.72;;;;;;;;;;6259851;28;20650;-70
2020/12/16 06:51:47;;;;;;;63.90;44.85;;;;;;;;;;6257419;28;20052;-70
2020/12/16 06:54:53;;;;;;;60.30;44.13;;;;;;;;;;6259469;28;20500;-73
2020/12/16 06:57:54;;;;;;;62.22;46.03;;;;;;;;;;6259980;28;20126;-72
2020/12/16 07:01:11;;;;;;;67.88;47.90;;;;;;;;;;6285023;28;20140;-73
2020/12/16 07:04:12;;;;;;;66.15;44.97;;;;;;;;;;6287045;28;20055;-70
2020/12/16 07:07:47;;;;;;;65.38;47.13;;;;;;;;;;6291843;28;20040;-73
2020/12/16 07:10:49;;;;;;;67.45;46.50;;;;;;;;;;6288539;28;20041;-70
2020/12/16 07:14:08;;;;;;;66.05;48.15;;;;;;;;;;6271298;28;20079;-69
2020/12/16 07:17:11;;;;;;;68.85;49.75;;;;;;;;;;6264761;28;20076;-72
2020/12/16 07:20:31;;;;;;;64.60;47.63;;;;;;;;;;6265626;28;20553;-70
2020/12/16 07:23:39;;;;;;;63.22;47.85;;;;;;;;;;6288451;28;20124;-71
2020/12/16 07:26:46;;;;;;;59.80;42.85;;;;;;;;;;6291625;28;20112;-74
2020/12/16 07:29:54;;;;;;;63.35;45.17;;;;;;;;;;6275645;28;20083;-70
2020/12/16 07:33:14;;;;;;;62.05;45.53;;;;;;;;;;6272190;28;20068;-70
2020/12/16 07:36:16;;;;;;;62.55;44.17;;;;;;;;;;6282770;28;20101;-73
2020/12/16 07:39:17;;;;;;;60.70;43.50;;;;;;;;;;6260745;28;20045;-68
2020/12/16 07:42:20;;;;;;;60.47;43.05;;;;;;;;;;6258843;28;20102;-71
2020/12/16 07:45:21;;;;;;;58.35;42.03;;;;;;;;;;6250317;28;20063;-69
2020/12/16 07:48:23;;;;;;;58.72;43.55;;;;;;;;;;6251811;28;20132;-69
2020/12/16 07:51:24;;;;;;;55.90;40.97;;;;;;;;;;6264007;28;20125;-72
2020/12/16 07:54:25;;;;;;;60.03;44.17;;;;;;;;;;6263375;28;21517;-71
2020/12/16 07:57:27;;;;;;;54.25;40.50;;;;;;;;;;6273203;28;20048;-70
2020/12/16 08:00:28;;;;;;;52.30;39.75;;;;;;;;;;6272895;28;20324;-70
2020/12/16 08:03:30;;;;;;;56.30;39.65;;;;;;;;;;6273663;28;20049;-70
2020/12/16 08:06:32;;;;;;;55.00;39.67;;;;;;;;;;6272332;28;20155;-71
2020/12/16 08:09:33;;;;;;;53.65;39.03;;;;;;;;;;6275940;28;20048;-71
2020/12/16 08:12:40;;;;;;;53.25;38.22;;;;;;;;;;6273596;28;20512;-70
2020/12/16 08:15:41;;;;;;;52.40;38.00;;;;;;;;;;6241662;28;20102;-71
2020/12/16 08:18:44;;;;;;;53.17;37.60;;;;;;;;;;6271637;28;20171;-70
2020/12/16 08:21:49;;;;;;;52.38;38.40;;;;;;;;;;6271524;28;20052;-73
2020/12/16 08:24:58;;;;;;;49.17;36.70;;;;;;;;;;6270497;28;20037;-71
2020/12/16 08:27:59;;;;;;;51.97;36.58;;;;;;;;;;6251912;28;20057;-70
2020/12/16 08:31:02;;;;;;;46.40;35.83;;;;;;;;;;6253988;28;20087;-69
2020/12/16 08:34:04;;;;;;;49.35;36.08;;;;;;;;;;6272571;28;20036;-70
2020/12/16 08:37:06;;;;;;;50.47;35.97;;;;;;;;;;6254600;28;20136;-70
2020/12/16 08:40:08;;;;;;;46.72;36.03;;;;;;;;;;6259405;28;20056;-69
2020/12/16 08:43:21;;;;;;;50.42;35.08;;;;;;;;;;6259060;28;20060;-70
2020/12/16 08:46:23;;;;;;;53.55;35.88;;;;;;;;;;6251250;28;20049;-72
2020/12/16 08:49:25;;;;;;;52.60;37.08;;;;;;;;;;6259769;28;20416;-69
2020/12/16 08:52:26;;;;;;;48.92;36.58;;;;;;;;;;6251552;28;20053;-71
2020/12/16 08:55:34;;;;;;;52.65;37.65;;;;;;;;;;6255782;28;20195;-70
2020/12/16 08:58:35;;;;;;;53.88;37.67;;;;;;;;;;6254846;28;20152;-70
2020/12/16 09:01:37;;;;;;;52.45;39.95;;;;;;;;;;6257648;28;20782;-69
2020/12/16 09:04:40;;;;;;;54.45;39.42;;;;;;;;;;6260629;28;20071;-70
2020/12/16 09:07:41;;;;;;;51.25;38.00;;;;;;;;;;6253139;28;20041;-70
2020/12/16 09:10:44;;;;;;;53.40;40.28;;;;;;;;;;6252957;28;20473;-70
2020/12/16 09:13:45;;;;;;;49.38;38.58;;;;;;;;;;6279979;28;20048;-69
2020/12/16 09:16:46;;;;;;;53.67;37.83;;;;;;;;;;6260852;28;20151;-72
2020/12/16 09:19:48;;;;;;;50.20;38.70;;;;;;;;;;6262082;28;20135;-69
2020/12/16 09:22:53;;;;;;;54.40;38.75;;;;;;;;;;6256508;28;20227;-69
2020/12/16 09:25:56;;;;;;;51.90;38.38;;;;;;;;;;6252685;28;20043;-70
2020/12/16 09:28:57;;;;;;;51.42;38.83;;;;;;;;;;6255873;28;20041;-69
2020/12/16 09:32:08;;;;;;;50.05;37.05;;;;;;;;;;6261945;28;20067;-72
2020/12/16 09:35:10;;;;;;;51.95;37.83;;;;;;;;;;6256978;28;20136;-70
2020/12/16 09:38:13;;;;;;;48.08;35.35;;;;;;;;;;6262790;28;20045;-69
2020/12/16 09:41:14;;;;;;;50.58;36.40;;;;;;;;;;6260839;28;20041;-71
2020/12/16 09:44:25;;;;;;;46.33;35.30;;;;;;;;;;6261163;28;20083;-73
2020/12/16 09:47:27;;;;;;;52.72;36.47;;;;;;;;;;6264345;28;20569;-69
2020/12/16 09:50:32;;;;;;;48.90;35.03;;;;;;;;;;6256921;28;20095;-70
2020/12/16 09:53:38;;;;;;;45.13;35.17;;;;;;;;;;6257557;28;20049;-71
2020/12/16 09:56:39;;;;;;;49.42;35.63;;;;;;;;;;6256192;28;20060;-70
2020/12/16 09:59:40;;;;;;;47.97;36.70;;;;;;;;;;6262147;28;20068;-71
2020/12/16 10:02:41;;;;;;;48.08;36.05;;;;;;;;;;6268930;28;20048;-70
2020/12/16 10:05:44;;;;;;;45.72;36.20;;;;;;;;;;6268599;28;20051;-72
2020/12/16 10:08:45;;;;;;;46.97;36.08;;;;;;;;;;6268171;28;20131;-70
2020/12/16 10:11:48;;;;;;;45.63;35.00;;;;;;;;;;6263070;28;20072;-72
2020/12/16 10:14:50;;;;;;;49.38;36.03;;;;;;;;;;6265739;28;20063;-69
2020/12/16 10:17:52;;;;;;;47.85;35.63;;;;;;;;;;6264983;28;20049;-70
2020/12/16 10:20:54;;;;;;;45.47;35.20;;;;;;;;;;6263235;28;20049;-70
2020/12/16 10:23:55;;;;;;;44.33;35.17;;;;;;;;;;6260764;28;20045;-70
2020/12/16 10:27:01;;;;;;;47.30;35.58;;;;;;;;;;6263118;28;20052;-70
2020/12/16 10:30:04;;;;;;;44.28;34.38;;;;;;;;;;6266021;28;20068;-69
2020/12/16 10:33:05;;;;;;;45.58;34.15;;;;;;;;;;6265466;28;20081;-70
2020/12/16 10:36:07;;;;;;;43.00;34.72;;;;;;;;;;6263267;28;20099;-70
2020/12/16 10:39:08;;;;;;;44.42;34.47;;;;;;;;;;6269019;28;20131;-72
2020/12/16 10:42:10;;;;;;;43.85;32.22;;;;;;;;;;6288871;28;20533;-71
2020/12/16 10:45:11;;;;;;;41.35;31.65;;;;;;;;;;6281756;28;20047;-71
2020/12/16 10:48:15;;;;;;;44.83;32.42;;;;;;;;;;6289169;28;21283;-71
2020/12/16 10:51:17;;;;;;;41.28;33.08;;;;;;;;;;6294870;28;20087;-71
2020/12/16 10:54:20;;;;;;;43.42;32.75;;;;;;;;;;6285542;28;20614;-72
2020/12/16 10:57:22;;;;;;;44.25;32.92;;;;;;;;;;6287415;28;20040;-70
2020/12/16 11:00:23;;;;;;;41.35;32.08;;;;;;;;;;6284472;28;20040;-74
2020/12/16 11:03:25;;;;;;;41.03;31.85;;;;;;;;;;6278270;28;20049;-70
2020/12/16 11:06:26;;;;;;;41.38;32.70;;;;;;;;;;6283307;28;20045;-72
2020/12/16 11:09:27;;;;;;;43.75;32.75;;;;;;;;;;6287156;28;20044;-72
2020/12/16 11:12:28;;;;;;;38.60;30.95;;;;;;;;;;6289255;28;20162;-71
2020/12/16 11:15:29;;;;;;;40.50;32.10;;;;;;;;;;6286958;28;20183;-71
2020/12/16 11:18:31;;;;;;;40.00;31.27;;;;;;;;;;6283888;28;20052;-71
2020/12/16 11:21:37;;;;;;;39.80;30.27;;;;;;;;;;6277731;28;20124;-73
2020/12/16 11:24:39;;;;;;;37.65;29.25;;;;;;;;;;6268606;28;20049;-69
2020/12/16 11:27:40;;;;;;;34.88;27.90;;;;;;;;;;6253008;28;20803;-72
2020/12/16 11:30:41;;;;;;;34.70;26.38;;;;;;;;;;6252840;28;20060;-70
2020/12/16 11:33:43;;;;;;;31.85;27.17;;;;;;;;;;6261355;28;20456;-71
2020/12/16 11:36:45;;;;;;;36.72;27.95;;;;;;;;;;6262025;28;20053;-70
2020/12/16 11:39:46;;;;;;;33.33;26.38;;;;;;;;;;6262393;28;20196;-69
2020/12/16 11:42:48;;;;;;;33.72;26.33;;;;;;;;;;6261202;28;20137;-69
2020/12/16 11:45:52;;;;;;;32.38;27.10;;;;;;;;;;6261937;28;20151;-71
2020/12/16 11:48:54;;;;;;;32.75;25.38;;;;;;;;;;6264681;28;20045;-70
2020/12/16 11:51:56;;;;;;;32.75;26.25;;;;;;;;;;6263504;28;20045;-70
2020/12/16 11:54:57;;;;;;;36.92;29.52;;;;;;;;;;6270829;28;20049;-70
2020/12/16 11:57:58;;;;;;;34.03;28.27;;;;;;;;;;6260425;28;20265;-72
2020/12/16 12:00:59;;;;;;;38.63;29.05;;;;;;;;;;6267541;28;20102;-70
2020/12/16 12:04:01;;;;;;;35.40;27.92;;;;;;;;;;6260114;28;20052;-71
2020/12/16 12:07:03;;;;;;;36.20;27.83;;;;;;;;;;6262883;28;20049;-72
2020/12/16 12:10:04;;;;;;;36.95;28.05;;;;;;;;;;6260056;28;20048;-75
2020/12/16 12:13:05;;;;;;;35.88;27.10;;;;;;;;;;6262890;28;20052;-75
2020/12/16 12:16:07;;;;;;;36.10;28.20;;;;;;;;;;6257166;28;20045;-73
2020/12/16 12:19:09;;;;;;;34.42;27.13;;;;;;;;;;6259948;28;20842;-71
2020/12/16 12:22:10;;;;;;;32.33;26.60;;;;;;;;;;6254978;28;20497;-73
2020/12/16 12:25:11;;;;;;;32.88;26.42;;;;;;;;;;6258511;28;20143;-72
2020/12/16 12:28:27;;;;;;;32.97;27.05;;;;;;;;;;6228311;28;20049;-72
2020/12/16 12:31:28;;;;;;;33.85;26.95;;;;;;;;;;6253284;28;20547;-72
2020/12/16 12:34:30;;;;;;;32.50;26.63;;;;;;;;;;6259595;28;20106;-71
2020/12/16 12:37:31;;;;;;;34.05;25.80;;;;;;;;;;6267654;28;20136;-73
2020/12/16 12:40:32;;;;;;;28.52;24.73;;;;;;;;;;6260804;28;20142;-69
2020/12/16 12:43:34;;;;;;;28.65;21.50;;;;;;;;;;6265153;28;20124;-70
2020/12/16 12:46:35;;;;;;;21.88;17.15;;;;;;;;;;6264856;28;20124;-71
2020/12/16 12:49:37;;;;;;;26.67;18.75;;;;;;;;;;6264198;28;20044;-70
2020/12/16 12:52:38;;;;;;;22.80;18.83;;;;;;;;;;6262962;28;20449;-71
2020/12/16 12:55:40;;;;;;;32.70;22.65;;;;;;;;;;6261930;28;20142;-71
2020/12/16 12:58:41;;;;;;;27.05;20.85;;;;;;;;;;6267033;28;20124;-71
2020/12/16 13:01:42;;;;;;;30.88;22.85;;;;;;;;;;6263526;28;20774;-71
2020/12/16 13:04:44;;;;;;;29.13;21.90;;;;;;;;;;6263314;28;20060;-70
2020/12/16 13:07:47;;;;;;;25.58;20.75;;;;;;;;;;6261215;28;20508;-71
2020/12/16 13:10:48;;;;;;;24.83;18.98;;;;;;;;;;6266549;28;20048;-71
2020/12/16 13:13:49;;;;;;;26.73;19.45;;;;;;;;;;6258168;28;20086;-71
2020/12/16 13:16:50;;;;;;;27.70;20.15;;;;;;;;;;6278912;28;20071;-71
2020/12/16 13:19:52;;;;;;;25.42;20.27;;;;;;;;;;6287342;28;20060;-71
2020/12/16 13:22:53;;;;;;;27.58;20.23;;;;;;;;;;6286532;28;20473;-71
2020/12/16 13:25:54;;;;;;;26.83;20.77;;;;;;;;;;6281484;28;20053;-71
2020/12/16 13:28:55;;;;;;;28.27;19.58;;;;;;;;;;6264887;28;20046;-71
2020/12/16 13:31:56;;;;;;;25.90;20.38;;;;;;;;;;6254389;28;20048;-70
2020/12/16 13:34:58;;;;;;;30.55;20.92;;;;;;;;;;6257472;28;20055;-72
2020/12/16 13:37:59;;;;;;;27.88;22.20;;;;;;;;;;6258998;28;20077;-75
2020/12/16 13:41:00;;;;;;;26.65;21.90;;;;;;;;;;6251161;28;20059;-70
2020/12/16 13:44:02;;;;;;;31.75;21.52;;;;;;;;;;6252868;28;20048;-71
2020/12/16 13:47:03;;;;;;;32.53;22.83;;;;;;;;;;6256650;28;20127;-71
2020/12/16 13:50:08;;;;;;;27.42;21.92;;;;;;;;;;6249327;28;20163;-72
2020/12/16 13:53:10;;;;;;;33.42;26.40;;;;;;;;;;6261034;28;20395;-71
2020/12/16 13:56:11;;;;;;;30.80;24.83;;;;;;;;;;6260365;28;20060;-71
2020/12/16 13:59:12;;;;;;;30.20;23.55;;;;;;;;;;6254794;28;20059;-71
2020/12/16 14:02:13;;;;;;;31.10;24.52;;;;;;;;;;6253919;28;20053;-70
2020/12/16 14:05:15;;;;;;;27.80;22.60;;;;;;;;;;6272051;28;20041;-71
2020/12/16 14:08:16;;;;;;;24.25;19.02;;;;;;;;;;6255775;28;20140;-71
2020/12/16 14:11:20;;;;;;;25.70;19.60;;;;;;;;;;6265365;28;20102;-71
2020/12/16 14:14:21;;;;;;;23.17;19.52;;;;;;;;;;6262100;28;20133;-70
2020/12/16 14:17:22;;;;;;;28.95;21.17;;;;;;;;;;6264803;28;20124;-70
2020/12/16 14:20:25;;;;;;;30.25;22.70;;;;;;;;;;6256891;28;20164;-69
2020/12/16 14:23:26;;;;;;;45.53;32.57;;;;;;;;;;6278835;28;20041;-69
2020/12/16 14:26:27;;;;;;;46.60;37.45;;;;;;;;;;6280197;28;21254;-70
2020/12/16 14:29:28;;;;;;;48.17;35.58;;;;;;;;;;6276041;28;20171;-69
2020/12/16 14:32:30;;;;;;;49.95;35.00;;;;;;;;;;6270491;28;20159;-70
2020/12/16 14:35:34;;;;;;;48.47;34.97;;;;;;;;;;6270593;28;20053;-71
2020/12/16 14:38:36;;;;;;;43.95;34.40;;;;;;;;;;6278306;28;20053;-70
2020/12/16 14:41:37;;;;;;;52.45;35.58;;;;;;;;;;6280381;28;20506;-70
2020/12/16 14:44:38;;;;;;;46.60;35.47;;;;;;;;;;6275876;28;20083;-71
2020/12/16 14:47:39;;;;;;;45.08;34.45;;;;;;;;;;6281422;28;20070;-72
2020/12/16 14:50:41;;;;;;;45.15;33.50;;;;;;;;;;6285688;28;20076;-70
2020/12/16 14:53:42;;;;;;;45.00;33.35;;;;;;;;;;6287070;28;20474;-74
2020/12/16 14:56:47;;;;;;;48.55;32.90;;;;;;;;;;6279557;28;20044;-71
2020/12/16 14:59:48;;;;;;;45.45;34.25;;;;;;;;;;6279754;28;20151;-72
2020/12/16 15:02:49;;;;;;;47.15;33.58;;;;;;;;;;6282137;28;20259;-70
2020/12/16 15:05:51;;;;;;;43.20;31.83;;;;;;;;;;6282347;28;20143;-70
2020/12/16 15:08:52;;;;;;;45.60;33.25;;;;;;;;;;6286372;28;20140;-70
2020/12/16 15:11:54;;;;;;;39.05;29.60;;;;;;;;;;6275841;28;20056;-71
2020/12/16 15:14:55;;;;;;;36.42;27.90;;;;;;;;;;6279152;28;20505;-71
2020/12/16 15:17:56;;;;;;;39.75;29.17;;;;;;;;;;6281384;28;20052;-74
2020/12/16 15:20:58;;;;;;;36.70;26.95;;;;;;;;;;6277266;28;20045;-71
2020/12/16 15:24:00;;;;;;;32.20;25.88;;;;;;;;;;6277930;28;20756;-72
2020/12/16 15:27:01;;;;;;;34.33;24.73;;;;;;;;;;6281352;28;20144;-72
2020/12/16 15:30:05;;;;;;;36.05;26.00;;;;;;;;;;6287913;28;20619;-72
2020/12/16 15:33:06;;;;;;;33.00;25.38;;;;;;;;;;6280869;28;20075;-71
2020/12/16 15:36:08;;;;;;;31.75;25.30;;;;;;;;;;6280022;28;20049;-73
2020/12/16 15:39:09;;;;;;;35.63;25.92;;;;;;;;;;6275360;28;20036;-71
2020/12/16 15:42:10;;;;;;;31.48;24.10;;;;;;;;;;6252240;28;20717;-73
2020/12/16 15:45:12;;;;;;;34.15;24.23;;;;;;;;;;6252357;28;20056;-73
2020/12/16 15:48:13;;;;;;;35.15;24.77;;;;;;;;;;6258466;28;20139;-71
2020/12/16 15:51:16;;;;;;;37.92;26.33;;;;;;;;;;6252248;28;20049;-69
2020/12/16 15:54:17;;;;;;;37.67;26.90;;;;;;;;;;6252704;28;20099;-73
2020/12/16 15:57:18;;;;;;;40.03;28.80;;;;;;;;;;6254431;28;20520;-71
2020/12/16 16:00:20;;;;;;;36.33;28.92;;;;;;;;;;6257328;28;20080;-70
2020/12/16 16:03:21;;;;;;;38.63;28.77;;;;;;;;;;6256494;28;20120;-70
2020/12/16 16:06:23;;;;;;;38.40;26.58;;;;;;;;;;6257271;28;20124;-71
2020/12/16 16:09:25;;;;;;;35.30;27.90;;;;;;;;;;6257757;28;20556;-70
2020/12/16 16:12:26;;;;;;;34.83;26.00;;;;;;;;;;6255617;28;20045;-71
2020/12/16 16:15:27;;;;;;;41.30;27.33;;;;;;;;;;6254876;28;20108;-71
2020/12/16 16:18:28;;;;;;;36.50;27.85;;;;;;;;;;6255208;28;20049;-71
2020/12/16 16:21:33;;;;;;;33.38;27.00;;;;;;;;;;6256888;28;20951;-69
2020/12/16 16:24:34;;;;;;;34.22;27.55;;;;;;;;;;6262436;28;20151;-73
2020/12/16 16:27:36;;;;;;;39.00;27.83;;;;;;;;;;6279528;28;20078;-69
2020/12/16 16:30:37;;;;;;;37.42;29.30;;;;;;;;;;6277647;28;20076;-71
2020/12/16 16:33:38;;;;;;;40.85;30.02;;;;;;;;;;6250676;28;20394;-73
2020/12/16 16:36:42;;;;;;;39.65;30.05;;;;;;;;;;6257050;28;20071;-70
2020/12/16 16:39:43;;;;;;;39.33;29.40;;;;;;;;;;6255331;28;20059;-69
2020/12/16 16:42:45;;;;;;;39.08;29.70;;;;;;;;;;6257073;28;20080;-70
2020/12/16 16:45:46;;;;;;;47.15;31.40;;;;;;;;;;6254605;28;20063;-75
2020/12/16 16:48:49;;;;;;;43.28;32.28;;;;;;;;;;6255846;28;20123;-70
2020/12/16 16:51:51;;;;;;;42.88;33.05;;;;;;;;;;6253346;28;20049;-71
2020/12/16 16:54:52;;;;;;;48.95;34.58;;;;;;;;;;6245913;28;20511;-70
2020/12/16 16:57:53;;;;;;;46.78;35.33;;;;;;;;;;6265455;28;20495;-71
2020/12/16 17:00:56;;;;;;;42.25;32.90;;;;;;;;;;6277338;28;20076;-70
2020/12/16 17:03:57;;;;;;;46.92;35.75;;;;;;;;;;6282310;28;20094;-72
2020/12/16 17:06:59;;;;;;;46.97;35.30;;;;;;;;;;6282930;28;20041;-70
2020/12/16 17:10:00;;;;;;;48.33;35.85;;;;;;;;;;6286984;28;20442;-73
2020/12/16 17:13:01;;;;;;;46.58;34.40;;;;;;;;;;6286108;28;20075;-70
2020/12/16 17:16:02;;;;;;;48.15;35.55;;;;;;;;;;6283273;28;20053;-70
2020/12/16 17:19:04;;;;;;;46.25;35.97;;;;;;;;;;6277364;28;20064;-67
2020/12/16 17:22:07;;;;;;;47.70;37.10;;;;;;;;;;6264367;28;20441;-69
2020/12/16 17:25:08;;;;;;;50.03;37.30;;;;;;;;;;6263419;28;20059;-70
2020/12/16 17:28:09;;;;;;;50.00;36.08;;;;;;;;;;6260934;28;20501;-74
2020/12/16 17:31:10;;;;;;;49.25;36.22;;;;;;;;;;6252202;28;20540;-70
2020/12/16 17:34:11;;;;;;;49.13;37.25;;;;;;;;;;6252446;28;20128;-70
2020/12/16 17:37:13;;;;;;;48.42;35.85;;;;;;;;;;6251828;28;20105;-69
2020/12/16 17:40:17;;;;;;;48.72;36.10;;;;;;;;;;6263760;28;20131;-71